Inzhener Nazarov — UAGO — position and weather

sailwx.info

Track history (hours):
 
Tides and Currents Weather Stations Pressure Air Temp Water Temp Dewpoint Dewpoint Depression Visibility Wind Speed Wind Dir Waves Ship Positions

Inzhener Nazarov

Last reported at 2017-Oct-11 00:00 UTC. Time now 2017-Oct-20 19:48 UTC.
Position N 45°19' E 036°31'.
Warning: this ship's position is 9 days out of date.

Length 132 m; draft 2.6 m.

Type: Tanker. MMSI: 273310100.

Date/timePositionNaut miles runAvg speedWind from/ knotsBaromVisibWave heightAir tempDewpointWater temp
2017-Oct-11 00:00N 45°19' E 036°31'3 5.7
2017-Oct-10 23:30N 45°17' E 036°29'2 4.0
2017-Oct-10 23:00N 45°15' E 036°28'3 5.2
2017-Oct-10 22:30N 45°12' E 036°28'4 6.9
2017-Oct-10 21:52N 45°08' E 036°31'3 7.1
2017-Oct-10 21:29N 45°06' E 036°34'6 0.4
2017-Oct-10 07:16N 45°11' E 036°28'1 5.9
2017-Oct-10 07:00N 45°12' E 036°29'1 0.8
2017-Oct-10 05:49N 45°13' E 036°29'0 0.0
2017-Oct-10 05:10N 45°13' E 036°29'0 0.0
2017-Oct-10 05:00N 45°13' E 036°29'0 0.0
2017-Oct-10 03:10N 45°13' E 036°29'0 0.0
2017-Oct-10 02:59N 45°13' E 036°29'0 0.0
2017-Oct-10 00:59N 45°13' E 036°29'0 0.0
2017-Oct-10 00:19N 45°13' E 036°29'0 0.0
2017-Oct-09 23:21N 45°13' E 036°29'0 0.0
2017-Oct-09 22:56N 45°13' E 036°29'0 0.0
2017-Oct-09 22:26N 45°13' E 036°29'0 0.0
2017-Oct-09 19:23N 45°13' E 036°29'0 0.0
2017-Oct-09 12:09N 45°13' E 036°29'0 0.1
2017-Oct-09 11:14N 45°13' E 036°29'0 0.1
2017-Oct-09 10:26N 45°13' E 036°29'0 0.1
2017-Oct-09 09:48N 45°13' E 036°29'0 0.0
2017-Oct-09 08:11N 45°13' E 036°29'0 0.0
2017-Oct-09 06:22N 45°13' E 036°29'0 0.0
2017-Oct-09 05:53N 45°13' E 036°29'0 0.1
2017-Oct-09 05:28N 45°13' E 036°29'0 0.2
2017-Oct-09 05:00N 45°13' E 036°29'0 0.5
2017-Oct-09 04:16N 45°13' E 036°29'0 0.1
2017-Oct-09 04:00N 45°13' E 036°29'0 0.0
2017-Oct-09 03:30N 45°13' E 036°29'0 0.0
2017-Oct-09 01:44N 45°13' E 036°29'0 0.1
2017-Oct-09 01:26N 45°13' E 036°29'0 0.0
2017-Oct-09 01:00N 45°13' E 036°29'0 0.0
2017-Oct-09 00:28N 45°13' E 036°29'0 0.0
2017-Oct-09 00:00N 45°13' E 036°29'0 0.0
2017-Oct-08 23:16N 45°13' E 036°29'0 0.0
2017-Oct-08 23:00N 45°13' E 036°29'0 0.0
2017-Oct-08 22:17N 45°13' E 036°29'0 0.0
2017-Oct-08 21:29N 45°13' E 036°29'0 0.0
2017-Oct-08 20:41N 45°13' E 036°29'0 0.1
2017-Oct-08 20:30N 45°13' E 036°29'0 0.0
2017-Oct-08 19:57N 45°13' E 036°29'0 0.0
2017-Oct-08 19:05N 45°13' E 036°29'0 0.1
2017-Oct-08 19:00N 45°13' E 036°29'0 0.0
2017-Oct-08 18:29N 45°13' E 036°29'0 0.0
2017-Oct-08 18:00N 45°13' E 036°29'0 0.0
2017-Oct-08 16:28N 45°13' E 036°29'0 0.0
2017-Oct-08 15:08N 45°13' E 036°29'0 0.0
2017-Oct-08 15:00N 45°13' E 036°29'0 0.0
2017-Oct-08 14:27N 45°13' E 036°29'0 0.0
2017-Oct-08 14:01N 45°13' E 036°29'0 0.0
2017-Oct-08 13:30N 45°13' E 036°29'0 0.0
2017-Oct-08 13:00N 45°13' E 036°29'0 0.0
2017-Oct-08 12:30N 45°13' E 036°29'0 0.1
2017-Oct-08 11:59N 45°13' E 036°29'0 0.0
2017-Oct-08 11:28N 45°13' E 036°29'0 0.0
2017-Oct-08 11:00N 45°13' E 036°29'0 0.0
2017-Oct-08 10:29N 45°13' E 036°29'1 2.6
2017-Oct-08 10:00N 45°14' E 036°28'3 5.7
2017-Oct-08 09:30N 45°17' E 036°29'2 4.7
2017-Oct-08 09:00N 45°19' E 036°31'2 3.6
2017-Oct-08 08:30N 45°19' E 036°33'3 5.2
2017-Oct-08 08:00N 45°20' E 036°37'3 5.1
2017-Oct-08 07:30N 45°21' E 036°40'3 6.2
2017-Oct-08 07:00N 45°24' E 036°41'3 6.2
2017-Oct-08 06:30N 45°27' E 036°42'2 3.5
2017-Oct-08 06:00N 45°28' E 036°44'0 0.2
2017-Oct-08 05:28N 45°28' E 036°44'0 0.0
2017-Oct-08 04:48N 45°28' E 036°44'0 0.1
2017-Oct-08 04:25N 45°28' E 036°44'0 0.0
2017-Oct-08 00:18N 45°28' E 036°44'0 0.0
2017-Oct-07 23:59N 45°28' E 036°44'0 0.0
2017-Oct-07 23:30N 45°28' E 036°44'0 0.0
2017-Oct-07 22:40N 45°28' E 036°44'0 0.0
2017-Oct-07 22:24N 45°28' E 036°44'0 0.0
2017-Oct-07 21:56N 45°28' E 036°44'0 0.0
2017-Oct-07 21:23N 45°28' E 036°44'0 0.0
2017-Oct-07 20:59N 45°28' E 036°44'0 0.0
2017-Oct-07 20:19N 45°28' E 036°44'0 0.1
2017-Oct-07 19:53N 45°28' E 036°44'0 0.1
2017-Oct-07 19:21N 45°28' E 036°44'0 0.1
2017-Oct-07 18:26N 45°28' E 036°44'0 0.1
2017-Oct-07 17:57N 45°28' E 036°44'0 0.0
2017-Oct-07 17:23N 45°28' E 036°44'0 0.0
2017-Oct-07 16:56N 45°28' E 036°44'0 0.0
2017-Oct-07 16:20N 45°28' E 036°44'0 0.0
2017-Oct-07 15:58N 45°28' E 036°44'0 0.0
2017-Oct-07 15:29N 45°28' E 036°44'0 0.0
2017-Oct-07 14:56N 45°28' E 036°44'0 0.0
2017-Oct-07 14:23N 45°28' E 036°44'0 0.0
2017-Oct-07 13:54N 45°28' E 036°44'0 0.1
2017-Oct-07 13:28N 45°28' E 036°44'0 0.1
2017-Oct-07 12:58N 45°28' E 036°44'0 0.1
2017-Oct-07 12:24N 45°28' E 036°44'0 0.1
2017-Oct-07 11:52N 45°28' E 036°44'0 0.2
2017-Oct-07 11:28N 45°28' E 036°44'0 0.1
2017-Oct-07 10:56N 45°28' E 036°44'0 0.0
2017-Oct-07 10:28N 45°28' E 036°44'0 0.0
2017-Oct-07 10:00N 45°28' E 036°44'0 0.0
2017-Oct-07 09:27N 45°28' E 036°44'0 0.0
2017-Oct-07 08:57N 45°28' E 036°44'0 0.0
2017-Oct-07 08:30N 45°28' E 036°44'0 0.0
2017-Oct-07 07:55N 45°28' E 036°44'0 0.0
2017-Oct-07 07:28N 45°28' E 036°44'0 0.1
2017-Oct-07 07:00N 45°28' E 036°44'0 0.0
2017-Oct-07 06:25N 45°28' E 036°44'0 0.0
2017-Oct-07 06:00N 45°28' E 036°44'0 0.0
2017-Oct-07 05:28N 45°28' E 036°44'0 0.0
2017-Oct-07 04:50N 45°28' E 036°44'0 0.0
2017-Oct-07 04:24N 45°28' E 036°44'0 0.0
2017-Oct-07 03:51N 45°28' E 036°44'0 0.0
2017-Oct-07 03:23N 45°28' E 036°44'0 0.0
2017-Oct-07 02:51N 45°28' E 036°44'0 0.0
2017-Oct-07 02:24N 45°28' E 036°44'0 0.1
2017-Oct-07 01:53N 45°28' E 036°44'0 0.0
2017-Oct-07 01:23N 45°28' E 036°44'0 0.0
2017-Oct-07 00:38N 45°28' E 036°44'0 0.0
2017-Oct-07 00:24N 45°28' E 036°44'0 0.0
2017-Oct-06 23:58N 45°28' E 036°44'0 0.0
2017-Oct-06 23:30N 45°28' E 036°44'0 0.1
2017-Oct-06 22:26N 45°28' E 036°44'0 0.0
2017-Oct-06 21:55N 45°28' E 036°44'0 0.0
2017-Oct-06 21:28N 45°28' E 036°44'0 0.0
2017-Oct-06 20:13N 45°28' E 036°44'0 0.0
2017-Oct-06 19:58N 45°28' E 036°44'0 0.0
2017-Oct-06 19:29N 45°28' E 036°44'0 0.0
2017-Oct-06 18:59N 45°28' E 036°44'0 0.0
2017-Oct-06 18:19N 45°28' E 036°44'0 0.0
2017-Oct-06 17:59N 45°28' E 036°44'0 0.0
2017-Oct-06 17:30N 45°28' E 036°44'0 0.0
2017-Oct-06 16:52N 45°28' E 036°44'0 0.0
2017-Oct-06 16:22N 45°28' E 036°44'0 0.0
2017-Oct-06 15:46N 45°28' E 036°44'0 0.0
2017-Oct-06 15:29N 45°28' E 036°44'0 0.0
2017-Oct-06 14:56N 45°28' E 036°44'0 0.0
2017-Oct-06 14:29N 45°28' E 036°44'0 0.0
2017-Oct-06 13:57N 45°28' E 036°44'0 0.0
2017-Oct-06 13:19N 45°28' E 036°44'0 0.0
2017-Oct-06 12:59N 45°28' E 036°44'0 0.0
2017-Oct-06 12:30N 45°28' E 036°44'0 0.0
2017-Oct-06 12:00N 45°28' E 036°44'0 0.0
2017-Oct-06 11:29N 45°28' E 036°44'0 0.0
2017-Oct-06 10:58N 45°28' E 036°44'0 0.0
2017-Oct-06 10:27N 45°28' E 036°44'0 0.0
2017-Oct-06 10:00N 45°28' E 036°44'0 0.0
2017-Oct-06 09:28N 45°28' E 036°44'0 0.0
2017-Oct-06 08:59N 45°28' E 036°44'0 0.0
2017-Oct-06 08:30N 45°28' E 036°44'0 0.0
2017-Oct-06 08:00N 45°28' E 036°44'0 0.0
2017-Oct-06 07:31N 45°28' E 036°44'0 0.0
2017-Oct-06 06:59N 45°28' E 036°44'0 0.0
2017-Oct-06 06:28N 45°28' E 036°44'0 0.0
2017-Oct-06 06:01N 45°28' E 036°44'0 0.0
2017-Oct-06 05:30N 45°28' E 036°44'0 0.0
2017-Oct-06 04:57N 45°28' E 036°44'0 0.0
2017-Oct-06 04:26N 45°28' E 036°44'0 0.0
2017-Oct-06 04:00N 45°28' E 036°44'0 0.0
2017-Oct-06 03:30N 45°28' E 036°44'0 0.0
2017-Oct-06 02:59N 45°28' E 036°44'0 0.0
2017-Oct-06 02:30N 45°28' E 036°44'0 0.0
2017-Oct-06 01:52N 45°28' E 036°44'0 0.0
2017-Oct-06 01:21N 45°28' E 036°44'0 0.0
2017-Oct-06 00:56N 45°28' E 036°44'0 0.0
2017-Oct-06 00:25N 45°28' E 036°44'0 0.0
2017-Oct-05 23:55N 45°28' E 036°44'0 0.0
2017-Oct-05 23:12N 45°28' E 036°44'0 0.0
2017-Oct-05 22:59N 45°28' E 036°44'0 0.0
2017-Oct-05 22:29N 45°28' E 036°44'0 0.0
2017-Oct-05 21:52N 45°28' E 036°44'0 0.0
2017-Oct-05 21:31N 45°28' E 036°44'0 0.0
2017-Oct-05 20:59N 45°28' E 036°44'0 0.0
2017-Oct-05 20:28N 45°28' E 036°44'0 0.0
2017-Oct-05 19:55N 45°28' E 036°44'0 0.0
2017-Oct-05 19:28N 45°28' E 036°44'0 0.0
2017-Oct-05 18:59N 45°28' E 036°44'0 0.0
2017-Oct-05 18:30N 45°28' E 036°44'0 0.0
2017-Oct-05 17:54N 45°28' E 036°44'0 0.0
2017-Oct-05 17:29N 45°28' E 036°44'0 0.0
2017-Oct-05 16:57N 45°28' E 036°44'0 0.0
2017-Oct-05 15:30N 45°28' E 036°44'0 0.0
2017-Oct-05 14:46N 45°28' E 036°44'0 0.0
2017-Oct-05 14:30N 45°28' E 036°44'0 0.0
2017-Oct-05 13:45N 45°28' E 036°44'0 0.0
2017-Oct-05 13:31N 45°28' E 036°44'0 0.0
2017-Oct-05 13:00N 45°28' E 036°44'0 0.0
2017-Oct-05 12:25N 45°28' E 036°44'0 0.0
2017-Oct-05 12:01N 45°28' E 036°44'0 0.0
2017-Oct-05 11:31N 45°28' E 036°44'0 0.0
2017-Oct-05 10:56N 45°28' E 036°44'0 0.0
2017-Oct-05 10:24N 45°28' E 036°44'0 0.0
2017-Oct-05 10:00N 45°28' E 036°44'0 0.0
2017-Oct-05 09:28N 45°28' E 036°44'0 0.0
2017-Oct-05 08:58N 45°28' E 036°44'0 0.0
2017-Oct-05 08:29N 45°28' E 036°44'0 0.0
2017-Oct-05 08:00N 45°28' E 036°44'0 0.0
2017-Oct-05 07:30N 45°28' E 036°44'0 0.0
2017-Oct-05 06:56N 45°28' E 036°44'0 0.0
2017-Oct-05 06:27N 45°28' E 036°44'0 0.0
2017-Oct-05 05:59N 45°28' E 036°44'0 0.0
2017-Oct-05 05:30N 45°28' E 036°44'0 0.0
2017-Oct-05 05:00N 45°28' E 036°44'0 0.0
2017-Oct-05 04:27N 45°28' E 036°44'0 0.0
2017-Oct-05 04:00N 45°28' E 036°44'0 0.0
2017-Oct-05 03:30N 45°28' E 036°44'0 0.0
2017-Oct-05 02:42N 45°28' E 036°44'0 0.0
2017-Oct-05 02:26N 45°28' E 036°44'0 0.1
2017-Oct-05 02:00N 45°28' E 036°44'0 0.1
2017-Oct-05 01:28N 45°28' E 036°44'0 0.0
2017-Oct-05 00:35N 45°28' E 036°44'0 0.1
2017-Oct-05 00:26N 45°28' E 036°44'0 0.0
2017-Oct-04 23:55N 45°28' E 036°44'0 0.1
2017-Oct-04 23:31N 45°28' E 036°44'0 0.0
2017-Oct-04 22:21N 45°28' E 036°44'0 0.0
2017-Oct-04 22:01N 45°28' E 036°44'0 0.0
2017-Oct-04 21:28N 45°28' E 036°44'0 0.0
2017-Oct-04 20:59N 45°28' E 036°44'0 0.0
2017-Oct-04 20:26N 45°28' E 036°44'0 0.0
2017-Oct-04 20:00N 45°28' E 036°44'0 0.0
2017-Oct-04 19:30N 45°28' E 036°44'0 0.0
2017-Oct-04 18:55N 45°28' E 036°44'0 0.0
2017-Oct-04 18:26N 45°28' E 036°44'0 0.0
2017-Oct-04 17:53N 45°28' E 036°44'0 0.0
2017-Oct-04 17:30N 45°28' E 036°44'0 0.0
2017-Oct-04 16:56N 45°28' E 036°44'0 0.0
2017-Oct-04 16:27N 45°28' E 036°44'0 0.0
2017-Oct-04 15:54N 45°28' E 036°44'0 0.0
2017-Oct-04 13:28N 45°28' E 036°44'0 0.0
2017-Oct-04 12:57N 45°28' E 036°44'0 0.1
2017-Oct-04 12:23N 45°28' E 036°44'0 0.0
2017-Oct-04 11:58N 45°28' E 036°44'0 0.0
2017-Oct-04 11:30N 45°28' E 036°44'0 0.0
2017-Oct-04 10:59N 45°28' E 036°44'0 0.0
2017-Oct-04 10:28N 45°28' E 036°44'0 0.0
2017-Oct-04 09:58N 45°28' E 036°44'0 0.0
2017-Oct-04 09:28N 45°28' E 036°44'0 0.0
2017-Oct-04 08:59N 45°28' E 036°44'0 0.0
2017-Oct-04 08:29N 45°28' E 036°44'0 0.0
2017-Oct-04 07:56N 45°28' E 036°44'0 0.0
2017-Oct-04 07:30N 45°28' E 036°44'0 0.0
2017-Oct-04 06:58N 45°28' E 036°44'0 0.0
2017-Oct-04 06:28N 45°28' E 036°44'0 0.0
2017-Oct-04 05:56N 45°28' E 036°44'0 0.0
2017-Oct-04 05:27N 45°28' E 036°44'0 0.0
2017-Oct-04 04:55N 45°28' E 036°44'0 0.0
2017-Oct-04 04:24N 45°28' E 036°44'0 0.0
2017-Oct-04 03:46N 45°28' E 036°44'0 0.0
2017-Oct-04 03:29N 45°28' E 036°44'0 0.0
2017-Oct-04 02:59N 45°28' E 036°44'0 0.0
2017-Oct-03 11:14N 45°28' E 036°44'0 0.0
2017-Oct-03 09:53N 45°28' E 036°44'0 0.0
2017-Oct-03 08:29N 45°28' E 036°44'0 0.0
2017-Oct-03 07:28N 45°28' E 036°44'0 0.0
2017-Oct-03 06:02N 45°28' E 036°44'0 0.0
2017-Oct-01 06:24N 45°28' E 036°44'0 0.0
2017-Oct-01 06:00N 45°28' E 036°44'  
Track history (hours):
 
Tides and Currents Weather Stations Pressure Air Temp Water Temp Dewpoint Dewpoint Depression Visibility Wind Speed Wind Dir Waves Ship Positions

Inzhener Nazarov

Last reported at 2017-Oct-11 00:00 UTC. Time now 2017-Oct-20 19:48 UTC.
Position N 45°19' E 036°31'.
Warning: this ship's position is 9 days out of date.

Length 132 m; draft 2.6 m.

Type: Tanker. MMSI: 273310100.

Date/timePositionNaut miles runAvg speedWind from/ knotsBaromVisibWave heightAir tempDewpointWater temp
2017-Oct-11 00:00N 45°19' E 036°31'3 5.7
2017-Oct-10 23:30N 45°17' E 036°29'2 4.0
2017-Oct-10 23:00N 45°15' E 036°28'3 5.2
2017-Oct-10 22:30N 45°12' E 036°28'4 6.9
2017-Oct-10 21:52N 45°08' E 036°31'3 7.1
2017-Oct-10 21:29N 45°06' E 036°34'6 0.4
2017-Oct-10 07:16N 45°11' E 036°28'1 5.9
2017-Oct-10 07:00N 45°12' E 036°29'1 0.8
2017-Oct-10 05:49N 45°13' E 036°29'0 0.0
2017-Oct-10 05:10N 45°13' E 036°29'0 0.0
2017-Oct-10 05:00N 45°13' E 036°29'0 0.0
2017-Oct-10 03:10N 45°13' E 036°29'0 0.0
2017-Oct-10 02:59N 45°13' E 036°29'0 0.0
2017-Oct-10 00:59N 45°13' E 036°29'0 0.0
2017-Oct-10 00:19N 45°13' E 036°29'0 0.0
2017-Oct-09 23:21N 45°13' E 036°29'0 0.0
2017-Oct-09 22:56N 45°13' E 036°29'0 0.0
2017-Oct-09 22:26N 45°13' E 036°29'0 0.0
2017-Oct-09 19:23N 45°13' E 036°29'0 0.0
2017-Oct-09 12:09N 45°13' E 036°29'0 0.1
2017-Oct-09 11:14N 45°13' E 036°29'0 0.1
2017-Oct-09 10:26N 45°13' E 036°29'0 0.1
2017-Oct-09 09:48N 45°13' E 036°29'0 0.0
2017-Oct-09 08:11N 45°13' E 036°29'0 0.0
2017-Oct-09 06:22N 45°13' E 036°29'0 0.0
2017-Oct-09 05:53N 45°13' E 036°29'0 0.1
2017-Oct-09 05:28N 45°13' E 036°29'0 0.2
2017-Oct-09 05:00N 45°13' E 036°29'0 0.5
2017-Oct-09 04:16N 45°13' E 036°29'0 0.1
2017-Oct-09 04:00N 45°13' E 036°29'0 0.0
2017-Oct-09 03:30N 45°13' E 036°29'0 0.0
2017-Oct-09 01:44N 45°13' E 036°29'0 0.1
2017-Oct-09 01:26N 45°13' E 036°29'0 0.0
2017-Oct-09 01:00N 45°13' E 036°29'0 0.0
2017-Oct-09 00:28N 45°13' E 036°29'0 0.0
2017-Oct-09 00:00N 45°13' E 036°29'0 0.0
2017-Oct-08 23:16N 45°13' E 036°29'0 0.0
2017-Oct-08 23:00N 45°13' E 036°29'0 0.0
2017-Oct-08 22:17N 45°13' E 036°29'0 0.0
2017-Oct-08 21:29N 45°13' E 036°29'0 0.0
2017-Oct-08 20:41N 45°13' E 036°29'0 0.1
2017-Oct-08 20:30N 45°13' E 036°29'0 0.0
2017-Oct-08 19:57N 45°13' E 036°29'0 0.0
2017-Oct-08 19:05N 45°13' E 036°29'0 0.1
2017-Oct-08 19:00N 45°13' E 036°29'0 0.0
2017-Oct-08 18:29N 45°13' E 036°29'0 0.0
2017-Oct-08 18:00N 45°13' E 036°29'0 0.0
2017-Oct-08 16:28N 45°13' E 036°29'0 0.0
2017-Oct-08 15:08N 45°13' E 036°29'0 0.0
2017-Oct-08 15:00N 45°13' E 036°29'0 0.0
2017-Oct-08 14:27N 45°13' E 036°29'0 0.0
2017-Oct-08 14:01N 45°13' E 036°29'0 0.0
2017-Oct-08 13:30N 45°13' E 036°29'0 0.0
2017-Oct-08 13:00N 45°13' E 036°29'0 0.0
2017-Oct-08 12:30N 45°13' E 036°29'0 0.1
2017-Oct-08 11:59N 45°13' E 036°29'0 0.0
2017-Oct-08 11:28N 45°13' E 036°29'0 0.0
2017-Oct-08 11:00N 45°13' E 036°29'0 0.0
2017-Oct-08 10:29N 45°13' E 036°29'1 2.6
2017-Oct-08 10:00N 45°14' E 036°28'3 5.7
2017-Oct-08 09:30N 45°17' E 036°29'2 4.7
2017-Oct-08 09:00N 45°19' E 036°31'2 3.6
2017-Oct-08 08:30N 45°19' E 036°33'3 5.2
2017-Oct-08 08:00N 45°20' E 036°37'3 5.1
2017-Oct-08 07:30N 45°21' E 036°40'3 6.2
2017-Oct-08 07:00N 45°24' E 036°41'3 6.2
2017-Oct-08 06:30N 45°27' E 036°42'2 3.5
2017-Oct-08 06:00N 45°28' E 036°44'0 0.2
2017-Oct-08 05:28N 45°28' E 036°44'0 0.0
2017-Oct-08 04:48N 45°28' E 036°44'0 0.1
2017-Oct-08 04:25N 45°28' E 036°44'0 0.0
2017-Oct-08 00:18N 45°28' E 036°44'0 0.0
2017-Oct-07 23:59N 45°28' E 036°44'0 0.0
2017-Oct-07 23:30N 45°28' E 036°44'0 0.0
2017-Oct-07 22:40N 45°28' E 036°44'0 0.0
2017-Oct-07 22:24N 45°28' E 036°44'0 0.0
2017-Oct-07 21:56N 45°28' E 036°44'0 0.0
2017-Oct-07 21:23N 45°28' E 036°44'0 0.0
2017-Oct-07 20:59N 45°28' E 036°44'0 0.0
2017-Oct-07 20:19N 45°28' E 036°44'0 0.1
2017-Oct-07 19:53N 45°28' E 036°44'0 0.1
2017-Oct-07 19:21N 45°28' E 036°44'0 0.1
2017-Oct-07 18:26N 45°28' E 036°44'0 0.1
2017-Oct-07 17:57N 45°28' E 036°44'0 0.0
2017-Oct-07 17:23N 45°28' E 036°44'0 0.0
2017-Oct-07 16:56N 45°28' E 036°44'0 0.0
2017-Oct-07 16:20N 45°28' E 036°44'0 0.0
2017-Oct-07 15:58N 45°28' E 036°44'0 0.0
2017-Oct-07 15:29N 45°28' E 036°44'0 0.0
2017-Oct-07 14:56N 45°28' E 036°44'0 0.0
2017-Oct-07 14:23N 45°28' E 036°44'0 0.0
2017-Oct-07 13:54N 45°28' E 036°44'0 0.1
2017-Oct-07 13:28N 45°28' E 036°44'0 0.1
2017-Oct-07 12:58N 45°28' E 036°44'0 0.1
2017-Oct-07 12:24N 45°28' E 036°44'0 0.1
2017-Oct-07 11:52N 45°28' E 036°44'0 0.2
2017-Oct-07 11:28N 45°28' E 036°44'0 0.1
2017-Oct-07 10:56N 45°28' E 036°44'0 0.0
2017-Oct-07 10:28N 45°28' E 036°44'0 0.0
2017-Oct-07 10:00N 45°28' E 036°44'0 0.0
2017-Oct-07 09:27N 45°28' E 036°44'0 0.0
2017-Oct-07 08:57N 45°28' E 036°44'0 0.0
2017-Oct-07 08:30N 45°28' E 036°44'0 0.0
2017-Oct-07 07:55N 45°28' E 036°44'0 0.0
2017-Oct-07 07:28N 45°28' E 036°44'0 0.1
2017-Oct-07 07:00N 45°28' E 036°44'0 0.0
2017-Oct-07 06:25N 45°28' E 036°44'0 0.0
2017-Oct-07 06:00N 45°28' E 036°44'0 0.0
2017-Oct-07 05:28N 45°28' E 036°44'0 0.0
2017-Oct-07 04:50N 45°28' E 036°44'0 0.0
2017-Oct-07 04:24N 45°28' E 036°44'0 0.0
2017-Oct-07 03:51N 45°28' E 036°44'0 0.0
2017-Oct-07 03:23N 45°28' E 036°44'0 0.0
2017-Oct-07 02:51N 45°28' E 036°44'0 0.0
2017-Oct-07 02:24N 45°28' E 036°44'0 0.1
2017-Oct-07 01:53N 45°28' E 036°44'0 0.0
2017-Oct-07 01:23N 45°28' E 036°44'0 0.0
2017-Oct-07 00:38N 45°28' E 036°44'0 0.0
2017-Oct-07 00:24N 45°28' E 036°44'0 0.0
2017-Oct-06 23:58N 45°28' E 036°44'0 0.0
2017-Oct-06 23:30N 45°28' E 036°44'0 0.1
2017-Oct-06 22:26N 45°28' E 036°44'0 0.0
2017-Oct-06 21:55N 45°28' E 036°44'0 0.0
2017-Oct-06 21:28N 45°28' E 036°44'0 0.0
2017-Oct-06 20:13N 45°28' E 036°44'0 0.0
2017-Oct-06 19:58N 45°28' E 036°44'0 0.0
2017-Oct-06 19:29N 45°28' E 036°44'0 0.0
2017-Oct-06 18:59N 45°28' E 036°44'0 0.0
2017-Oct-06 18:19N 45°28' E 036°44'0 0.0
2017-Oct-06 17:59N 45°28' E 036°44'0 0.0
2017-Oct-06 17:30N 45°28' E 036°44'0 0.0
2017-Oct-06 16:52N 45°28' E 036°44'0 0.0
2017-Oct-06 16:22N 45°28' E 036°44'0 0.0
2017-Oct-06 15:46N 45°28' E 036°44'0 0.0
2017-Oct-06 15:29N 45°28' E 036°44'0 0.0
2017-Oct-06 14:56N 45°28' E 036°44'0 0.0
2017-Oct-06 14:29N 45°28' E 036°44'0 0.0
2017-Oct-06 13:57N 45°28' E 036°44'0 0.0
2017-Oct-06 13:19N 45°28' E 036°44'0 0.0
2017-Oct-06 12:59N 45°28' E 036°44'0 0.0
2017-Oct-06 12:30N 45°28' E 036°44'0 0.0
2017-Oct-06 12:00N 45°28' E 036°44'0 0.0
2017-Oct-06 11:29N 45°28' E 036°44'0 0.0
2017-Oct-06 10:58N 45°28' E 036°44'0 0.0
2017-Oct-06 10:27N 45°28' E 036°44'0 0.0
2017-Oct-06 10:00N 45°28' E 036°44'0 0.0
2017-Oct-06 09:28N 45°28' E 036°44'0 0.0
2017-Oct-06 08:59N 45°28' E 036°44'0 0.0
2017-Oct-06 08:30N 45°28' E 036°44'0 0.0
2017-Oct-06 08:00N 45°28' E 036°44'0 0.0
2017-Oct-06 07:31N 45°28' E 036°44'0 0.0
2017-Oct-06 06:59N 45°28' E 036°44'0 0.0
2017-Oct-06 06:28N 45°28' E 036°44'0 0.0
2017-Oct-06 06:01N 45°28' E 036°44'0 0.0
2017-Oct-06 05:30N 45°28' E 036°44'0 0.0
2017-Oct-06 04:57N 45°28' E 036°44'0 0.0
2017-Oct-06 04:26N 45°28' E 036°44'0 0.0
2017-Oct-06 04:00N 45°28' E 036°44'0 0.0
2017-Oct-06 03:30N 45°28' E 036°44'0 0.0
2017-Oct-06 02:59N 45°28' E 036°44'0 0.0
2017-Oct-06 02:30N 45°28' E 036°44'0 0.0
2017-Oct-06 01:52N 45°28' E 036°44'0 0.0
2017-Oct-06 01:21N 45°28' E 036°44'0 0.0
2017-Oct-06 00:56N 45°28' E 036°44'0 0.0
2017-Oct-06 00:25N 45°28' E 036°44'0 0.0
2017-Oct-05 23:55N 45°28' E 036°44'0 0.0
2017-Oct-05 23:12N 45°28' E 036°44'0 0.0
2017-Oct-05 22:59N 45°28' E 036°44'0 0.0
2017-Oct-05 22:29N 45°28' E 036°44'0 0.0
2017-Oct-05 21:52N 45°28' E 036°44'0 0.0
2017-Oct-05 21:31N 45°28' E 036°44'0 0.0
2017-Oct-05 20:59N 45°28' E 036°44'0 0.0
2017-Oct-05 20:28N 45°28' E 036°44'0 0.0
2017-Oct-05 19:55N 45°28' E 036°44'0 0.0
2017-Oct-05 19:28N 45°28' E 036°44'0 0.0
2017-Oct-05 18:59N 45°28' E 036°44'0 0.0
2017-Oct-05 18:30N 45°28' E 036°44'0 0.0
2017-Oct-05 17:54N 45°28' E 036°44'0 0.0
2017-Oct-05 17:29N 45°28' E 036°44'0 0.0
2017-Oct-05 16:57N 45°28' E 036°44'0 0.0
2017-Oct-05 15:30N 45°28' E 036°44'0 0.0
2017-Oct-05 14:46N 45°28' E 036°44'0 0.0
2017-Oct-05 14:30N 45°28' E 036°44'0 0.0
2017-Oct-05 13:45N 45°28' E 036°44'0 0.0
2017-Oct-05 13:31N 45°28' E 036°44'0 0.0
2017-Oct-05 13:00N 45°28' E 036°44'0 0.0
2017-Oct-05 12:25N 45°28' E 036°44'0 0.0
2017-Oct-05 12:01N 45°28' E 036°44'0 0.0
2017-Oct-05 11:31N 45°28' E 036°44'0 0.0
2017-Oct-05 10:56N 45°28' E 036°44'0 0.0
2017-Oct-05 10:24N 45°28' E 036°44'0 0.0
2017-Oct-05 10:00N 45°28' E 036°44'0 0.0
2017-Oct-05 09:28N 45°28' E 036°44'0 0.0
2017-Oct-05 08:58N 45°28' E 036°44'0 0.0
2017-Oct-05 08:29N 45°28' E 036°44'0 0.0
2017-Oct-05 08:00N 45°28' E 036°44'0 0.0
2017-Oct-05 07:30N 45°28' E 036°44'0 0.0
2017-Oct-05 06:56N 45°28' E 036°44'0 0.0
2017-Oct-05 06:27N 45°28' E 036°44'0 0.0
2017-Oct-05 05:59N 45°28' E 036°44'0 0.0
2017-Oct-05 05:30N 45°28' E 036°44'0 0.0
2017-Oct-05 05:00N 45°28' E 036°44'0 0.0
2017-Oct-05 04:27N 45°28' E 036°44'0 0.0
2017-Oct-05 04:00N 45°28' E 036°44'0 0.0
2017-Oct-05 03:30N 45°28' E 036°44'0 0.0
2017-Oct-05 02:42N 45°28' E 036°44'0 0.0
2017-Oct-05 02:26N 45°28' E 036°44'0 0.1
2017-Oct-05 02:00N 45°28' E 036°44'0 0.1
2017-Oct-05 01:28N 45°28' E 036°44'0 0.0
2017-Oct-05 00:35N 45°28' E 036°44'0 0.1
2017-Oct-05 00:26N 45°28' E 036°44'0 0.0
2017-Oct-04 23:55N 45°28' E 036°44'0 0.1
2017-Oct-04 23:31N 45°28' E 036°44'0 0.0
2017-Oct-04 22:21N 45°28' E 036°44'0 0.0
2017-Oct-04 22:01N 45°28' E 036°44'0 0.0
2017-Oct-04 21:28N 45°28' E 036°44'0 0.0
2017-Oct-04 20:59N 45°28' E 036°44'0 0.0
2017-Oct-04 20:26N 45°28' E 036°44'0 0.0
2017-Oct-04 20:00N 45°28' E 036°44'0 0.0
2017-Oct-04 19:30N 45°28' E 036°44'0 0.0
2017-Oct-04 18:55N 45°28' E 036°44'0 0.0
2017-Oct-04 18:26N 45°28' E 036°44'0 0.0
2017-Oct-04 17:53N 45°28' E 036°44'0 0.0
2017-Oct-04 17:30N 45°28' E 036°44'0 0.0
2017-Oct-04 16:56N 45°28' E 036°44'0 0.0
2017-Oct-04 16:27N 45°28' E 036°44'0 0.0
2017-Oct-04 15:54N 45°28' E 036°44'0 0.0
2017-Oct-04 13:28N 45°28' E 036°44'0 0.0
2017-Oct-04 12:57N 45°28' E 036°44'0 0.1
2017-Oct-04 12:23N 45°28' E 036°44'0 0.0
2017-Oct-04 11:58N 45°28' E 036°44'0 0.0
2017-Oct-04 11:30N 45°28' E 036°44'0 0.0
2017-Oct-04 10:59N 45°28' E 036°44'0 0.0
2017-Oct-04 10:28N 45°28' E 036°44'0 0.0
2017-Oct-04 09:58N 45°28' E 036°44'0 0.0
2017-Oct-04 09:28N 45°28' E 036°44'0 0.0
2017-Oct-04 08:59N 45°28' E 036°44'0 0.0
2017-Oct-04 08:29N 45°28' E 036°44'0 0.0
2017-Oct-04 07:56N 45°28' E 036°44'0 0.0
2017-Oct-04 07:30N 45°28' E 036°44'0 0.0
2017-Oct-04 06:58N 45°28' E 036°44'0 0.0
2017-Oct-04 06:28N 45°28' E 036°44'0 0.0
2017-Oct-04 05:56N 45°28' E 036°44'0 0.0
2017-Oct-04 05:27N 45°28' E 036°44'0 0.0
2017-Oct-04 04:55N 45°28' E 036°44'0 0.0
2017-Oct-04 04:24N 45°28' E 036°44'0 0.0
2017-Oct-04 03:46N 45°28' E 036°44'0 0.0
2017-Oct-04 03:29N 45°28' E 036°44'0 0.0
2017-Oct-04 02:59N 45°28' E 036°44'0 0.0
2017-Oct-03 11:14N 45°28' E 036°44'0 0.0
2017-Oct-03 09:53N 45°28' E 036°44'0 0.0
2017-Oct-03 08:29N 45°28' E 036°44'0 0.0
2017-Oct-03 07:28N 45°28' E 036°44'0 0.0
2017-Oct-03 06:02N 45°28' E 036°44'0 0.0
2017-Oct-01 06:24N 45°28' E 036°44'0 0.0
2017-Oct-01 06:00N 45°28' E 036°44'  

Dump ship's entire track history